createdAt,value
2023-03-13T00:01:25.835Z,96842.19
2023-03-13T00:04:27.361Z,96838.94
2023-03-13T00:07:28.841Z,96839.66
2023-03-13T00:10:30.322Z,96838.03
2023-03-13T00:13:32.144Z,96831.88
2023-03-13T00:16:35.615Z,96828.94
2023-03-13T00:19:37.309Z,96820.56
2023-03-13T00:22:38.862Z,96827.44
2023-03-13T00:25:40.514Z,96817.94
2023-03-13T00:28:45.680Z,96813.19
2023-03-13T00:31:47.434Z,96820.91
2023-03-13T00:38:06.005Z,96805.38
2023-03-13T00:41:12.300Z,96810.00
2023-03-13T00:44:14.377Z,96795.28
2023-03-13T00:47:15.837Z,96794.75
2023-03-13T00:50:18.271Z,96796.00
2023-03-13T00:53:20.189Z,96789.03
2023-03-13T00:56:22.342Z,96788.69
2023-03-13T00:59:24.040Z,96801.22
2023-03-13T01:02:25.634Z,96790.22
2023-03-13T01:05:27.164Z,96794.84
2023-03-13T01:08:29.579Z,96793.09
2023-03-13T01:11:34.106Z,96803.13
2023-03-13T01:14:35.636Z,96797.63
2023-03-13T01:17:37.139Z,96801.81
2023-03-13T01:20:40.927Z,96776.38
2023-03-13T01:23:42.820Z,96794.50
2023-03-13T01:26:44.800Z,96785.78
2023-03-13T01:29:46.279Z,96765.22
2023-03-13T01:32:47.797Z,96774.06
2023-03-13T01:35:49.636Z,96779.41
2023-03-13T01:38:54.266Z,96769.06
2023-03-13T01:41:55.742Z,96775.78
2023-03-13T01:44:57.553Z,96768.81
2023-03-13T01:48:00.666Z,96767.53
2023-03-13T01:51:41.561Z,96755.31
2023-03-13T01:54:48.620Z,96742.75
2023-03-13T01:57:53.337Z,96738.09
2023-03-13T02:00:58.225Z,96738.47
2023-03-13T02:03:59.991Z,96721.94
2023-03-13T02:07:06.601Z,96727.75
2023-03-13T02:10:10.904Z,96715.78
2023-03-13T02:13:15.216Z,96711.63
2023-03-13T02:16:17.645Z,96687.47
2023-03-13T02:19:37.948Z,96671.91
2023-03-13T02:22:54.524Z,96675.97
2023-03-13T02:25:56.642Z,96682.59
2023-03-13T02:29:05.325Z,96688.50
2023-03-13T02:32:07.731Z,96673.63
2023-03-13T02:35:14.746Z,96677.81
2023-03-13T02:38:22.175Z,96649.50
2023-03-13T02:41:25.574Z,96649.03
2023-03-13T02:44:27.646Z,96648.53
2023-03-13T02:47:29.289Z,96649.25
2023-03-13T02:50:31.291Z,96648.34
2023-03-13T02:53:35.041Z,96644.84
2023-03-13T02:56:39.445Z,96654.59
2023-03-13T02:59:41.885Z,96648.44
2023-03-13T03:02:44.578Z,96640.56
2023-03-13T03:05:46.123Z,96664.81
2023-03-13T03:08:47.684Z,96638.78
2023-03-13T03:11:50.158Z,96632.88
2023-03-13T03:14:51.921Z,96658.28
2023-03-13T03:17:54.029Z,96638.00
2023-03-13T03:20:55.716Z,96639.72
2023-03-13T03:23:57.384Z,96646.25
2023-03-13T03:26:59.665Z,96666.22
2023-03-13T03:30:07.148Z,96646.22
2023-03-13T03:33:10.483Z,96641.72
2023-03-13T03:36:15.352Z,96644.16
2023-03-13T03:39:16.939Z,96634.16
2023-03-13T03:42:19.099Z,96622.53
2023-03-13T03:45:20.664Z,96629.97
2023-03-13T03:48:22.794Z,96635.31
2023-03-13T03:51:24.391Z,96629.63
2023-03-13T03:54:26.293Z,96619.75
2023-03-13T03:57:27.909Z,96640.66
2023-03-13T04:00:29.459Z,96630.22
2023-03-13T04:03:31.372Z,96639.59
2023-03-13T04:06:33.232Z,96639.03
2023-03-13T04:09:36.797Z,96627.53
2023-03-13T04:12:41.014Z,96611.84
2023-03-13T04:15:43.069Z,96613.94
2023-03-13T04:18:45.881Z,96600.25
2023-03-13T04:21:47.466Z,96598.88
2023-03-13T04:24:53.154Z,96604.69
2023-03-13T04:27:56.916Z,96594.31
2023-03-13T04:31:02.895Z,96600.47
2023-03-13T04:34:18.773Z,96598.84
2023-03-13T04:37:26.363Z,96600.00
2023-03-13T04:40:46.764Z,96585.63
2023-03-13T04:44:00.439Z,96589.66
2023-03-13T04:47:40.331Z,96579.78
2023-03-13T04:51:00.198Z,96588.13
2023-03-13T04:54:06.768Z,96589.53
2023-03-13T04:57:18.137Z,96608.59
2023-03-13T05:00:43.341Z,96585.97
2023-03-13T05:04:00.945Z,96597.47
2023-03-13T05:07:14.037Z,96598.16
2023-03-13T05:10:38.820Z,96591.88
2023-03-13T05:14:00.471Z,96601.78
2023-03-13T05:17:24.776Z,96606.50
2023-03-13T05:20:49.196Z,96588.19
2023-03-13T05:24:03.288Z,96535.03
2023-03-13T05:27:22.108Z,96574.38
2023-03-13T05:30:47.373Z,96580.31
2023-03-13T05:34:12.655Z,96572.88
2023-03-13T05:37:49.332Z,96570.09
2023-03-13T05:40:50.868Z,96578.56
2023-03-13T05:44:11.484Z,96574.09
2023-03-13T05:47:31.426Z,96590.13
2023-03-13T05:50:39.037Z,96574.03
2023-03-13T05:54:00.757Z,96603.16
2023-03-13T05:57:17.372Z,96572.00
2023-03-13T06:00:50.960Z,96589.19
2023-03-13T06:04:12.724Z,96579.91
2023-03-13T06:07:15.714Z,96588.72
2023-03-13T06:10:17.814Z,96569.22
2023-03-13T06:13:20.456Z,96566.09
2023-03-13T06:16:25.445Z,96588.25
2023-03-13T06:19:31.517Z,96572.81
2023-03-13T06:22:33.018Z,96559.97
2023-03-13T06:25:35.500Z,96578.50
2023-03-13T06:28:37.044Z,96577.44
2023-03-13T06:31:38.846Z,96559.75
2023-03-13T06:34:40.567Z,96559.13
2023-03-13T06:37:42.165Z,96568.47
2023-03-13T06:40:44.210Z,96550.56
2023-03-13T06:43:46.221Z,96562.22
2023-03-13T06:46:47.796Z,96571.13
2023-03-13T06:49:50.397Z,96563.25
2023-03-13T06:52:53.041Z,96568.63
2023-03-13T06:55:54.555Z,96576.97
2023-03-13T06:58:57.469Z,96571.63
2023-03-13T07:02:00.111Z,96596.47
2023-03-13T07:05:05.745Z,96601.13
2023-03-13T07:08:07.344Z,96630.34
2023-03-13T07:11:11.492Z,96618.41
2023-03-13T07:14:16.939Z,96610.19
2023-03-13T07:17:19.184Z,96614.16
2023-03-13T07:20:20.658Z,96620.63
2023-03-13T07:23:23.791Z,96598.75
2023-03-13T07:26:25.239Z,96610.16
2023-03-13T07:29:26.895Z,96601.16
2023-03-13T07:32:33.100Z,96608.28
2023-03-13T07:35:34.754Z,96633.69
2023-03-13T07:38:36.990Z,96596.53
2023-03-13T07:41:40.108Z,96581.03
2023-03-13T07:44:41.653Z,96597.31
2023-03-13T07:47:43.167Z,96616.69
2023-03-13T07:50:44.685Z,96585.91
2023-03-13T07:53:50.501Z,96570.94
2023-03-13T07:56:52.127Z,96579.25
2023-03-13T07:59:54.794Z,96572.31
2023-03-13T08:02:56.309Z,96571.25
2023-03-13T08:05:59.584Z,96567.03
2023-03-13T08:09:01.775Z,96543.50
2023-03-13T08:12:03.919Z,96554.41
2023-03-13T08:15:06.111Z,96554.38
2023-03-13T08:18:07.620Z,96544.75
2023-03-13T08:21:15.335Z,96545.47
2023-03-13T08:24:16.814Z,96544.91
2023-03-13T08:27:18.347Z,96548.34
2023-03-13T08:30:20.107Z,96531.44
2023-03-13T08:33:21.659Z,96525.25
2023-03-13T08:36:32.756Z,96530.91
2023-03-13T08:39:34.363Z,96520.22
2023-03-13T08:42:37.203Z,96537.53
2023-03-13T08:45:38.697Z,96523.25
2023-03-13T08:48:40.570Z,96532.81
2023-03-13T08:51:42.426Z,96508.13
2023-03-13T08:54:44.290Z,96515.84
2023-03-13T08:57:45.843Z,96495.09
2023-03-13T09:00:47.379Z,96502.50
2023-03-13T09:03:49.998Z,96511.91
2023-03-13T09:06:51.517Z,96486.31
2023-03-13T09:09:52.973Z,96484.84
2023-03-13T09:12:54.850Z,96481.63
2023-03-13T09:15:56.351Z,96483.03
2023-03-13T09:18:58.981Z,96476.03
2023-03-13T09:22:00.676Z,96458.56
2023-03-13T09:25:02.270Z,96455.59
2023-03-13T09:28:03.911Z,96451.84
2023-03-13T09:31:11.506Z,96454.53
2023-03-13T09:34:12.998Z,96438.91
2023-03-13T09:37:14.569Z,96437.81
2023-03-13T09:40:18.673Z,96438.09
2023-03-13T09:44:02.057Z,96420.59
2023-03-13T09:47:16.870Z,96421.94
2023-03-13T09:50:25.442Z,96428.09
2023-03-13T09:53:42.817Z,96415.34
2023-03-13T09:56:49.623Z,96398.06
2023-03-13T09:59:57.148Z,96389.22
2023-03-13T10:03:07.426Z,96388.09
2023-03-13T10:06:18.817Z,96368.19
2023-03-13T10:09:28.315Z,96371.94
2023-03-13T10:12:41.477Z,96373.03
2023-03-13T10:15:50.859Z,96367.28
2023-03-13T10:18:56.466Z,96364.19
2023-03-13T10:22:02.132Z,96363.44
2023-03-13T10:25:13.019Z,96348.06
2023-03-13T10:28:19.296Z,96344.88
2023-03-13T10:31:33.765Z,96328.84
2023-03-13T10:34:53.537Z,96342.97
2023-03-13T10:38:03.420Z,96318.91
2023-03-13T10:41:19.565Z,96319.94
2023-03-13T10:44:30.949Z,96290.81
2023-03-13T10:47:34.701Z,96298.03
2023-03-13T10:50:36.317Z,96288.72
2023-03-13T10:53:37.981Z,96286.03
2023-03-13T10:56:39.468Z,96276.38
2023-03-13T10:59:46.201Z,96261.31
2023-03-13T11:02:47.862Z,96254.97
2023-03-13T11:06:00.985Z,96239.03
2023-03-13T11:09:28.649Z,96228.00
2023-03-13T11:12:34.176Z,96234.00
2023-03-13T11:15:42.512Z,96226.47
2023-03-13T11:19:04.212Z,96220.59
2023-03-13T11:22:14.666Z,96214.94
2023-03-13T11:25:29.633Z,96199.72
2023-03-13T11:29:02.983Z,96192.50
2023-03-13T11:32:20.007Z,96193.03
2023-03-13T11:35:40.149Z,96175.72
2023-03-13T11:38:46.364Z,96174.28
2023-03-13T11:42:00.187Z,96156.00
2023-03-13T11:45:01.642Z,96165.06
2023-03-13T11:48:17.120Z,96154.44
2023-03-13T11:51:27.547Z,96152.59
2023-03-13T11:54:56.563Z,96140.47
2023-03-13T11:58:15.706Z,96142.91
2023-03-13T12:01:19.395Z,96134.19
2023-03-13T12:04:34.309Z,96138.31
2023-03-13T12:07:41.547Z,96115.53
2023-03-13T12:10:50.613Z,96098.06
2023-03-13T12:14:02.634Z,96121.81
2023-03-13T12:17:09.553Z,96094.63
2023-03-13T12:20:23.874Z,96075.53
2023-03-13T12:23:42.117Z,96075.53
2023-03-13T12:26:51.664Z,96069.59
2023-03-13T12:30:03.253Z,96056.31
2023-03-13T12:33:29.729Z,96046.06
2023-03-13T12:36:40.187Z,96027.06
2023-03-13T12:39:56.679Z,96017.25
2023-03-13T12:43:11.123Z,96017.19
2023-03-13T12:46:30.263Z,96007.75
2023-03-13T12:49:46.800Z,95999.97
2023-03-13T12:52:57.161Z,95980.63
2023-03-13T12:56:16.230Z,95974.09
2023-03-13T12:59:40.102Z,95968.13
2023-03-13T13:02:42.222Z,95948.31
2023-03-13T13:06:08.330Z,95951.97
2023-03-13T13:09:19.635Z,95934.53
2023-03-13T13:12:26.157Z,95933.44
2023-03-13T13:15:29.636Z,95917.75
2023-03-13T13:18:33.926Z,95906.41
2023-03-13T13:21:36.584Z,95900.44
2023-03-13T13:24:50.325Z,95890.31
2023-03-13T13:27:52.369Z,95891.91
2023-03-13T13:30:56.401Z,95890.38
2023-03-13T13:33:58.127Z,95880.59
2023-03-13T13:37:01.220Z,95879.13
2023-03-13T13:40:31.423Z,95880.13
2023-03-13T13:44:19.994Z,95881.19
2023-03-13T13:47:26.180Z,95868.09
2023-03-13T13:50:28.752Z,95864.44
2023-03-13T13:53:56.057Z,95846.88
2023-03-13T13:57:07.919Z,95854.47
2023-03-13T14:00:23.924Z,95846.56
2023-03-13T14:03:31.744Z,95843.13
2023-03-13T14:06:36.524Z,95836.63
2023-03-13T14:09:49.978Z,95829.06
2023-03-13T14:12:54.856Z,95829.53
2023-03-13T14:15:56.403Z,95818.66
2023-03-13T14:18:58.107Z,95811.34
2023-03-13T14:22:00.667Z,95813.94
2023-03-13T14:25:02.187Z,95806.84
2023-03-13T14:28:05.396Z,95802.38
2023-03-13T14:31:07.234Z,95807.19
2023-03-13T14:34:12.671Z,95783.22
2023-03-13T14:37:38.065Z,95794.66
2023-03-13T14:40:39.609Z,95789.56
2023-03-13T14:43:42.495Z,95775.81
2023-03-13T14:46:44.923Z,95758.59
2023-03-13T14:49:47.398Z,95755.94
2023-03-13T14:52:55.349Z,95755.09
2023-03-13T14:56:19.173Z,95749.66
2023-03-13T14:59:28.276Z,95731.50
2023-03-13T15:02:32.346Z,95728.78
2023-03-13T15:05:34.662Z,95714.28
2023-03-13T15:08:41.360Z,95707.50
2023-03-13T15:11:54.947Z,95682.97
2023-03-13T15:14:57.988Z,95676.31
2023-03-13T15:17:59.500Z,95669.88
2023-03-13T15:21:12.881Z,95661.41
2023-03-13T15:24:15.711Z,95641.75
2023-03-13T15:27:19.211Z,95629.97
2023-03-13T15:30:23.530Z,95630.84
2023-03-13T15:33:28.783Z,95627.72
2023-03-13T15:36:31.772Z,95620.16
2023-03-13T15:39:33.418Z,95619.19
2023-03-13T15:42:34.955Z,95620.19
2023-03-13T15:45:39.227Z,95618.84
2023-03-13T15:48:42.179Z,95605.78
2023-03-13T15:51:43.732Z,95601.84
2023-03-13T15:54:46.862Z,95598.84
2023-03-13T15:57:50.254Z,95592.50
2023-03-13T16:00:52.554Z,95577.28
2023-03-13T16:03:54.210Z,95566.50
2023-03-13T16:06:55.722Z,95560.16
2023-03-13T16:09:57.204Z,95540.81
2023-03-13T16:12:58.651Z,95541.22
2023-03-13T16:16:00.301Z,95530.53
2023-03-13T16:19:04.198Z,95516.34
2023-03-13T16:22:05.778Z,95502.53
2023-03-13T16:25:08.718Z,95488.28
2023-03-13T16:28:14.180Z,95480.06
2023-03-13T16:31:25.561Z,95483.19
2023-03-13T16:34:27.323Z,95475.97
2023-03-13T16:37:28.776Z,95490.69
2023-03-13T16:40:32.772Z,95476.91
2023-03-13T16:43:34.346Z,95484.66
2023-03-13T16:46:41.280Z,95473.97
2023-03-13T16:49:42.776Z,95464.56
2023-03-13T16:52:44.239Z,95445.22
2023-03-13T16:55:46.195Z,95434.84
2023-03-13T17:03:28.318Z,95405.06
2023-03-13T17:06:38.282Z,95404.31
2023-03-13T17:09:39.829Z,95394.94
2023-03-13T17:12:41.360Z,95386.69
2023-03-13T17:15:42.852Z,95362.88
2023-03-13T17:18:46.430Z,95377.50
2023-03-13T17:21:49.094Z,95363.59
2023-03-13T17:24:50.555Z,95375.47
2023-03-13T17:27:52.889Z,95358.59
2023-03-13T17:30:54.383Z,95349.56
2023-03-13T17:33:56.479Z,95346.16
2023-03-13T17:37:00.254Z,95349.66
2023-03-13T17:40:02.075Z,95350.44
2023-03-13T17:43:03.700Z,95364.47
2023-03-13T17:46:14.095Z,95367.06
2023-03-13T17:49:17.671Z,95356.81
2023-03-13T17:52:19.104Z,95368.44
2023-03-13T17:55:20.596Z,95374.16
2023-03-13T17:58:22.027Z,95379.56
2023-03-13T18:01:25.245Z,95362.56
2023-03-13T18:04:27.183Z,95354.44
2023-03-13T18:07:30.027Z,95352.22
2023-03-13T18:10:31.487Z,95353.63
2023-03-13T18:13:32.999Z,95332.94
2023-03-13T18:16:50.186Z,95343.91
2023-03-13T18:19:51.792Z,95333.91
2023-03-13T18:22:54.029Z,95338.38
2023-03-13T18:25:57.789Z,95319.25
2023-03-13T18:29:00.518Z,95315.44
2023-03-13T18:32:02.075Z,95318.91
2023-03-13T18:35:03.807Z,95308.75
2023-03-13T18:38:06.904Z,95303.97
2023-03-13T18:41:10.081Z,95292.84
2023-03-13T18:44:15.543Z,95273.94
2023-03-13T18:47:19.183Z,95277.75
2023-03-13T18:50:26.942Z,95279.81
2023-03-13T18:53:28.470Z,95280.28
2023-03-13T18:56:31.199Z,95289.06
2023-03-13T18:59:32.714Z,95289.34
2023-03-13T19:02:34.234Z,95293.47
2023-03-13T19:05:35.761Z,95298.34
2023-03-13T19:08:37.310Z,95400.16
2023-03-13T19:11:39.055Z,95481.69
2023-03-13T19:14:40.826Z,95590.69
2023-03-13T19:17:42.788Z,95618.63
2023-03-13T19:20:44.286Z,95623.72
2023-03-13T19:23:45.811Z,95649.16
2023-03-13T19:26:53.731Z,95678.84
2023-03-13T19:29:55.275Z,95723.94
2023-03-13T19:32:56.846Z,95748.38
2023-03-13T19:35:58.427Z,95751.31
2023-03-13T19:39:00.385Z,95732.06
2023-03-13T19:42:01.827Z,95790.84
2023-03-13T19:45:05.907Z,95796.78
2023-03-13T19:48:07.351Z,95815.97
2023-03-13T19:51:08.796Z,95765.91
2023-03-13T19:54:11.259Z,95796.28
2023-03-13T19:57:12.789Z,95813.34
2023-03-13T20:00:23.349Z,95843.41
2023-03-13T20:03:24.796Z,95851.97
2023-03-13T20:06:31.658Z,95864.03
2023-03-13T20:09:35.446Z,95890.31
2023-03-13T20:12:37.119Z,95844.50
2023-03-13T20:15:38.784Z,95834.81
2023-03-13T20:18:43.250Z,95857.13
2023-03-13T20:21:46.325Z,95873.31
2023-03-13T20:24:47.923Z,95864.69
2023-03-13T20:27:49.597Z,95824.63
2023-03-13T20:30:54.216Z,95767.78
2023-03-13T20:33:57.149Z,95772.66
2023-03-13T20:36:59.971Z,95808.53
2023-03-13T20:40:01.710Z,95827.38
2023-03-13T20:43:04.013Z,95815.97
2023-03-13T20:46:09.464Z,95808.41
2023-03-13T20:49:11.047Z,95830.97
2023-03-13T20:52:12.552Z,95854.94
2023-03-13T20:55:14.724Z,95863.97
2023-03-13T20:58:17.308Z,95893.38
2023-03-13T21:01:19.736Z,95857.16
2023-03-13T21:04:21.638Z,95844.91
2023-03-13T21:07:23.395Z,95821.59
2023-03-13T21:10:24.973Z,95771.84
2023-03-13T21:13:26.520Z,95725.81
2023-03-13T21:16:28.041Z,95727.66
2023-03-13T21:19:30.112Z,95763.78
2023-03-13T21:22:31.689Z,95770.94
2023-03-13T21:25:33.273Z,95742.22
2023-03-13T21:28:34.982Z,95756.88
2023-03-13T21:31:38.225Z,95730.53
2023-03-13T21:34:43.241Z,95713.22
2023-03-13T21:37:44.841Z,95717.97
2023-03-13T21:40:46.456Z,95710.41
2023-03-13T21:43:48.418Z,95714.53
2023-03-13T21:46:51.666Z,95728.41
2023-03-13T21:49:54.604Z,95722.25
2023-03-13T21:52:56.117Z,95722.50
2023-03-13T21:55:57.602Z,95727.84
2023-03-13T21:58:59.160Z,95721.16
2023-03-13T22:02:00.776Z,95721.97
2023-03-13T22:05:03.657Z,95716.72
2023-03-13T22:08:05.239Z,95752.53
2023-03-13T22:11:06.815Z,95751.00
2023-03-13T22:14:08.369Z,95771.63
2023-03-13T22:17:16.619Z,95780.53
2023-03-13T22:20:18.242Z,95788.53
2023-03-13T22:23:19.667Z,95788.50
2023-03-13T22:26:21.140Z,95805.03
2023-03-13T22:29:24.064Z,95814.66
2023-03-13T22:32:25.984Z,95816.88
2023-03-13T22:35:27.510Z,95822.81
2023-03-13T22:38:29.088Z,95818.78
2023-03-13T22:41:30.553Z,95836.69
2023-03-13T22:44:32.625Z,95821.09
2023-03-13T22:47:34.172Z,95819.84
2023-03-13T22:50:36.016Z,95832.13
2023-03-13T22:53:40.136Z,95827.16
2023-03-13T22:56:41.533Z,95821.69
2023-03-13T22:59:42.973Z,95813.13
2023-03-13T23:02:44.510Z,95818.53
2023-03-13T23:05:47.402Z,95815.38
2023-03-13T23:08:49.209Z,95769.97
2023-03-13T23:11:50.786Z,95698.25
2023-03-13T23:14:52.792Z,95690.19
2023-03-13T23:17:54.307Z,95665.03
2023-03-13T23:20:55.809Z,95668.16
2023-03-13T23:23:57.432Z,95673.56
2023-03-13T23:26:58.965Z,95680.22
2023-03-13T23:30:01.910Z,95681.50
2023-03-13T23:33:03.628Z,95711.59
2023-03-13T23:36:10.860Z,95701.25
2023-03-13T23:39:12.330Z,95702.84
2023-03-13T23:42:13.844Z,95696.47
2023-03-13T23:45:15.353Z,95690.59
2023-03-13T23:48:16.857Z,95701.09
2023-03-13T23:51:18.408Z,95707.19
2023-03-13T23:54:20.166Z,95706.06
2023-03-13T23:57:21.698Z,95703.94
